Time;durP1;ratioP1;P1;durP2;ratioP2;P2;SDS_P1;SDS_P2;PMS_P1;PMS_P2;Temp;Humidity;BMP_temperature;BMP_pressure;BME280_temperature;BME280_humidity;BME280_pressure;Samples;Min_cycle;Max_cycle;Signal;HPM_P1;HPM_P2
2022/01/07 00:00:56;;;;;;;;;;;;;;;18.43;65.07;101040.41;5069994;28;1460;-33
2022/01/07 00:03:23;;;;;;;;;;;;;;;18.44;65.24;101037.59;5074714;28;1575;-32
2022/01/07 00:06:00;;;;;;;;;;;;;;;18.40;64.93;101029.91;5074861;28;1894;-33
2022/01/07 00:08:36;;;;;;;;;;;;;;;18.38;64.75;101034.56;5074788;28;1733;-32
2022/01/07 00:11:03;;;;;;;;;;;;;;;18.37;64.73;101036.38;5074780;28;1525;-33
2022/01/07 00:13:32;;;;;;;;;;;;;;;18.37;64.36;101046.25;5075258;28;1818;-33
2022/01/07 00:15:59;;;;;;;;;;;;;;;18.38;65.05;101040.78;5074598;28;1989;-33
2022/01/07 00:18:26;;;;;;;;;;;;;;;18.37;65.12;101049.78;5071099;28;1901;-32
2022/01/07 00:20:53;;;;;;;;;;;;;;;18.39;65.36;101041.63;5074709;28;1485;-33
2022/01/07 00:23:23;;;;;;;;;;;;;;;18.39;65.35;101045.16;5074346;28;1711;-33
2022/01/07 00:25:52;;;;;;;;;;;;;;;18.38;65.36;101053.28;5074968;28;1654;-33
2022/01/07 00:28:19;;;;;;;;;;;;;;;18.38;65.32;101055.97;5067623;28;1603;-33
2022/01/07 00:30:48;;;;;;;;;;;;;;;18.34;65.23;101057.19;5063259;28;1973;-33
2022/01/07 00:33:16;;;;;;;;;;;;;;;18.32;64.93;101056.47;5068729;28;1452;-33
2022/01/07 00:35:43;;;;;;;;;;;;;;;18.32;64.97;101062.66;5067759;28;1906;-33
2022/01/07 00:38:09;;;;;;;;;;;;;;;18.29;64.86;101050.38;5067283;28;1425;-33
2022/01/07 00:40:37;;;;;;;;;;;;;;;18.31;64.71;101058.31;5064164;28;1446;-33
2022/01/07 00:43:04;;;;;;;;;;;;;;;18.35;64.75;101072.31;5065320;28;1624;-33
2022/01/07 00:45:31;;;;;;;;;;;;;;;18.28;64.73;101070.13;5072495;28;1470;-32
2022/01/07 00:47:57;;;;;;;;;;;;;;;18.34;64.74;101082.13;5071907;28;1509;-33
2022/01/07 00:50:25;;;;;;;;;;;;;;;18.32;64.69;101083.25;5067607;28;1683;-33
2022/01/07 00:52:51;;;;;;;;;;;;;;;18.28;64.95;101071.94;5070782;28;1872;-33
2022/01/07 00:55:18;;;;;;;;;;;;;;;18.31;64.50;101076.19;5070637;28;1914;-32
2022/01/07 00:57:46;;;;;;;;;;;;;;;18.31;64.46;101084.22;5069995;28;1701;-33
2022/01/07 01:00:14;;;;;;;;;;;;;;;18.27;64.69;101084.47;5068264;28;1567;-33
2022/01/07 01:02:40;;;;;;;;;;;;;;;18.23;64.84;101080.34;5071596;28;1644;-33
2022/01/07 01:05:08;;;;;;;;;;;;;;;18.27;64.73;101102.38;5071047;28;1553;-33
2022/01/07 01:07:34;;;;;;;;;;;;;;;18.25;64.35;101098.97;5073366;28;1741;-32
2022/01/07 01:10:05;;;;;;;;;;;;;;;18.23;64.71;101096.41;5073147;28;1903;-32
2022/01/07 01:12:32;;;;;;;;;;;;;;;18.22;64.22;101104.53;5073483;28;1889;-33
2022/01/07 01:15:00;;;;;;;;;;;;;;;18.21;64.28;101102.84;5073248;28;1771;-32
2022/01/07 01:17:26;;;;;;;;;;;;;;;18.21;63.95;101098.34;5073793;28;1624;-33
2022/01/07 01:19:52;;;;;;;;;;;;;;;18.19;64.34;101086.06;5072907;28;1651;-32
2022/01/07 01:22:19;;;;;;;;;;;;;;;18.25;63.87;101104.31;5073227;28;1840;-32
2022/01/07 01:24:46;;;;;;;;;;;;;;;18.21;63.07;101095.66;5072965;28;1718;-33
2022/01/07 01:27:12;;;;;;;;;;;;;;;18.21;63.48;101102.84;5073216;28;1731;-33
2022/01/07 01:29:38;;;;;;;;;;;;;;;18.18;63.50;101108.44;5072914;28;2065;-33
2022/01/07 01:32:07;;;;;;;;;;;;;;;18.21;63.80;101114.41;5072924;28;1819;-32
2022/01/07 01:34:33;;;;;;;;;;;;;;;18.19;63.38;101111.00;5069200;28;1759;-32
2022/01/07 01:36:59;;;;;;;;;;;;;;;18.16;63.62;101116.59;5072459;28;1969;-33
2022/01/07 01:39:26;;;;;;;;;;;;;;;18.19;63.36;101124.38;5073260;28;1479;-33
2022/01/07 01:41:53;;;;;;;;;;;;;;;18.20;63.43;101115.34;5073385;28;1788;-32
2022/01/07 01:44:19;;;;;;;;;;;;;;;18.18;63.32;101105.75;5072653;28;2068;-32
2022/01/07 01:46:46;;;;;;;;;;;;;;;18.21;62.76;101127.78;5073005;28;1748;-33
2022/01/07 01:49:13;;;;;;;;;;;;;;;18.20;62.94;101127.91;5073459;28;1139;-32
2022/01/07 01:51:40;;;;;;;;;;;;;;;18.17;62.83;101120.97;5073262;28;1953;-32
2022/01/07 01:54:06;;;;;;;;;;;;;;;18.20;62.48;101138.59;5072662;28;1944;-32
2022/01/07 01:56:33;;;;;;;;;;;;;;;18.15;62.77;101128.28;5072648;28;1985;-32
2022/01/07 01:59:00;;;;;;;;;;;;;;;18.11;62.86;101125.97;5072940;28;1556;-32
2022/01/07 02:01:26;;;;;;;;;;;;;;;18.23;62.96;101128.53;5071566;28;1983;-33
2022/01/07 02:03:53;;;;;;;;;;;;;;;18.64;62.07;101119.00;5073330;28;1092;-32
2022/01/07 02:06:21;;;;;;;;;;;;;;;19.20;60.66;101125.19;5072282;28;1748;-33
2022/01/07 02:08:48;;;;;;;;;;;;;;;19.58;60.07;101116.59;5066621;28;1609;-33
2022/01/07 02:11:14;;;;;;;;;;;;;;;19.76;60.48;101127.63;5072617;28;1752;-33
2022/01/07 02:13:41;;;;;;;;;;;;;;;19.88;60.00;101122.19;5072794;28;1872;-33
2022/01/07 02:16:07;;;;;;;;;;;;;;;19.83;59.32;101136.81;5072760;28;1967;-33
2022/01/07 02:18:34;;;;;;;;;;;;;;;19.84;59.46;101121.59;5073183;28;1647;-32
2022/01/07 02:21:03;;;;;;;;;;;;;;;19.77;60.37;101123.09;5071960;28;1969;-33
2022/01/07 02:23:32;;;;;;;;;;;;;;;19.75;59.58;101139.31;5066399;28;1960;-32
2022/01/07 02:25:58;;;;;;;;;;;;;;;19.77;59.60;101148.09;5071916;28;1543;-33
2022/01/07 02:28:25;;;;;;;;;;;;;;;19.74;59.68;101140.31;5072907;28;1575;-32
2022/01/07 02:30:52;;;;;;;;;;;;;;;19.73;59.88;101152.03;5072600;28;1767;-33
2022/01/07 02:33:18;;;;;;;;;;;;;;;19.75;59.46;101155.44;5073105;28;1720;-33
2022/01/07 02:35:46;;;;;;;;;;;;;;;19.79;60.43;101154.19;5072355;28;1973;-33
2022/01/07 02:38:15;;;;;;;;;;;;;;;19.84;60.00;101181.47;5072536;28;1694;-33
2022/01/07 02:40:42;;;;;;;;;;;;;;;19.96;60.19;101168.00;5072001;28;1553;-33
2022/01/07 02:43:08;;;;;;;;;;;;;;;20.01;60.00;101161.22;5072210;28;1646;-33
2022/01/07 02:45:35;;;;;;;;;;;;;;;20.03;58.98;101171.84;5073170;28;1536;-32
2022/01/07 02:48:03;;;;;;;;;;;;;;;20.08;58.84;101182.22;5072148;28;2456;-33
2022/01/07 02:50:31;;;;;;;;;;;;;;;20.04;59.51;101158.28;5072743;28;1678;-33
2022/01/07 02:52:57;;;;;;;;;;;;;;;20.03;58.75;101177.22;5071920;28;1768;-32
2022/01/07 02:55:27;;;;;;;;;;;;;;;20.04;59.88;101176.25;5073647;28;1753;-33
2022/01/07 02:57:53;;;;;;;;;;;;;;;20.02;58.87;101183.59;5075617;28;1910;-33
2022/01/07 03:03:00;;;;;;;;;;;;;;;20.00;58.82;101198.97;5030496;26;3040;-31
2022/01/07 03:05:27;;;;;;;;;;;;;;;20.02;58.61;101192.47;5050647;28;1945;-31
2022/01/07 03:07:59;;;;;;;;;;;;;;;20.05;58.93;101194.91;5048811;28;1781;-31
2022/01/07 03:10:30;;;;;;;;;;;;;;;20.13;58.66;101204.97;5048303;28;1703;-31
2022/01/07 03:12:57;;;;;;;;;;;;;;;20.10;58.63;101209.78;5050662;28;1996;-31
2022/01/07 03:15:26;;;;;;;;;;;;;;;20.08;58.69;101215.28;5038144;28;1570;-31
2022/01/07 03:17:56;;;;;;;;;;;;;;;20.17;59.33;101235.94;5050360;28;1902;-31
2022/01/07 03:20:23;;;;;;;;;;;;;;;20.11;59.08;101224.88;5051224;28;1724;-31
2022/01/07 03:22:54;;;;;;;;;;;;;;;20.01;59.07;101230.19;5044187;28;1849;-31
2022/01/07 03:25:22;;;;;;;;;;;;;;;20.12;59.48;101232.81;5041195;28;1903;-31
2022/01/07 03:27:54;;;;;;;;;;;;;;;20.10;58.55;101226.72;5047012;28;1806;-31
2022/01/07 03:30:24;;;;;;;;;;;;;;;20.13;58.23;101239.88;5045776;28;1623;-31
2022/01/07 03:32:54;;;;;;;;;;;;;;;20.13;58.56;101223.75;5042880;28;1497;-31
2022/01/07 03:35:20;;;;;;;;;;;;;;;20.20;58.27;101232.16;5046505;28;2227;-31
2022/01/07 03:37:55;;;;;;;;;;;;;;;20.21;58.64;101240.09;5053662;28;1989;-31
2022/01/07 03:40:22;;;;;;;;;;;;;;;20.31;58.71;101244.66;5035948;28;1816;-31
2022/01/07 03:42:55;;;;;;;;;;;;;;;20.27;58.21;101247.63;5039293;28;1676;-31
2022/01/07 03:45:29;;;;;;;;;;;;;;;20.22;59.27;101257.88;5046331;28;1881;-31
2022/01/07 03:47:56;;;;;;;;;;;;;;;20.20;58.18;101245.59;5048267;28;1735;-31
2022/01/07 03:50:25;;;;;;;;;;;;;;;20.05;59.27;101253.09;5037779;28;1882;-31
2022/01/07 03:52:56;;;;;;;;;;;;;;;19.96;60.26;101237.81;5041654;28;1844;-31
2022/01/07 03:58:17;;;;;;;;;;;;;;;19.84;61.08;101232.47;5039703;28;1906;-32
2022/01/07 04:00:44;;;;;;;;;;;;;;;19.94;61.27;101239.75;5048408;28;1777;-31
2022/01/07 04:03:14;;;;;;;;;;;;;;;19.88;60.71;101240.28;5046027;28;1622;-32
2022/01/07 04:05:45;;;;;;;;;;;;;;;19.82;61.16;101241.66;5048015;28;1898;-31
2022/01/07 04:08:16;;;;;;;;;;;;;;;19.80;61.30;101236.41;5050773;28;1763;-31
2022/01/07 04:10:44;;;;;;;;;;;;;;;19.81;61.41;101245.31;5037586;28;1770;-31
2022/01/07 04:13:19;;;;;;;;;;;;;;;19.89;61.91;101241.97;5041400;28;1483;-31
2022/01/07 04:15:53;;;;;;;;;;;;;;;19.90;61.75;101254.44;5035345;28;1787;-31
2022/01/07 04:18:19;;;;;;;;;;;;;;;19.82;61.42;101261.28;5052370;28;1973;-31
2022/01/07 04:20:48;;;;;;;;;;;;;;;19.87;61.04;101260.88;5049363;28;1964;-31
2022/01/07 04:23:17;;;;;;;;;;;;;;;19.77;62.40;101262.63;5045646;28;1650;-31
2022/01/07 04:25:46;;;;;;;;;;;;;;;19.83;62.31;101254.06;5045847;28;1784;-31
2022/01/07 04:28:16;;;;;;;;;;;;;;;19.82;62.33;101255.91;5045091;28;1318;-31
2022/01/07 04:30:45;;;;;;;;;;;;;;;19.75;62.66;101259.22;5049939;28;1809;-32
2022/01/07 04:33:25;;;;;;;;;;;;;;;19.77;62.13;101252.75;5039054;28;1139;-31
2022/01/07 04:35:56;;;;;;;;;;;;;;;19.75;62.98;101262.75;5052187;28;1975;-31
2022/01/07 04:38:23;;;;;;;;;;;;;;;19.78;62.10;101254.47;5044098;28;1906;-31
2022/01/07 04:40:50;;;;;;;;;;;;;;;19.90;61.97;101265.16;5046840;28;1407;-31
2022/01/07 04:43:24;;;;;;;;;;;;;;;19.83;62.83;101238.81;5048555;28;1716;-31
2022/01/07 04:45:51;;;;;;;;;;;;;;;19.81;62.05;101267.59;5045024;28;1646;-31
2022/01/07 04:48:20;;;;;;;;;;;;;;;19.85;61.80;101273.59;5043899;28;1092;-31
2022/01/07 04:50:47;;;;;;;;;;;;;;;19.81;62.66;101281.03;5038587;28;1865;-31
2022/01/07 04:53:22;;;;;;;;;;;;;;;19.94;62.62;101266.59;5047239;28;1599;-31
2022/01/07 04:55:50;;;;;;;;;;;;;;;19.95;62.78;101284.41;5036655;28;2120;-31
2022/01/07 04:58:19;;;;;;;;;;;;;;;19.94;62.32;101288.06;5035620;28;1914;-31
2022/01/07 05:00:49;;;;;;;;;;;;;;;19.95;62.57;101277.19;5046836;28;1664;-33
2022/01/07 05:03:16;;;;;;;;;;;;;;;19.92;62.08;101292.72;5033763;28;1421;-31
2022/01/07 05:05:46;;;;;;;;;;;;;;;19.82;63.02;101285.44;5038257;28;1950;-31
2022/01/07 05:08:19;;;;;;;;;;;;;;;19.80;63.15;101287.41;5044062;28;1796;-31
2022/01/07 05:10:47;;;;;;;;;;;;;;;19.85;63.19;101303.94;5039359;28;1668;-31
2022/01/07 05:13:14;;;;;;;;;;;;;;;19.95;62.79;101303.19;5051395;28;1680;-31
2022/01/07 05:15:41;;;;;;;;;;;;;;;19.85;62.39;101301.25;5051141;28;1896;-31
2022/01/07 05:18:14;;;;;;;;;;;;;;;19.84;62.92;101315.69;5044508;28;1967;-31
2022/01/07 05:20:40;;;;;;;;;;;;;;;19.80;63.44;101303.50;5035394;28;1812;-31
2022/01/07 05:23:08;;;;;;;;;;;;;;;19.75;62.52;101311.06;5045470;28;1825;-31
2022/01/07 05:25:35;;;;;;;;;;;;;;;19.74;63.43;101317.44;5035800;28;1332;-31
2022/01/07 05:30:44;;;;;;;;;;;;;;;19.76;62.84;101328.88;5039543;28;3341;-32
2022/01/07 05:33:14;;;;;;;;;;;;;;;19.90;63.46;101334.94;5049172;28;1102;-31
2022/01/07 05:35:44;;;;;;;;;;;;;;;19.88;63.48;101331.53;5036338;28;1809;-31
2022/01/07 05:38:12;;;;;;;;;;;;;;;19.93;62.16;101346.25;5041658;28;1910;-31
2022/01/07 05:40:48;;;;;;;;;;;;;;;19.86;63.32;101334.34;5046197;28;1741;-31
2022/01/07 05:43:26;;;;;;;;;;;;;;;19.90;63.40;101345.69;5044578;28;1818;-31
2022/01/07 05:45:57;;;;;;;;;;;;;;;19.92;62.86;101352.63;5050265;28;1791;-31
2022/01/07 05:48:29;;;;;;;;;;;;;;;19.89;63.48;101349.34;5033922;28;1238;-31
2022/01/07 05:51:04;;;;;;;;;;;;;;;19.84;63.06;101339.84;5037689;28;1762;-31
2022/01/07 05:53:31;;;;;;;;;;;;;;;19.85;63.47;101360.31;5037615;28;1710;-31
2022/01/07 05:55:57;;;;;;;;;;;;;;;19.91;62.21;101358.09;5038603;28;1875;-31
2022/01/07 05:58:27;;;;;;;;;;;;;;;19.83;62.56;101367.63;5037896;28;1910;-31
2022/01/07 06:00:54;;;;;;;;;;;;;;;19.85;63.75;101363.00;5043047;28;1581;-31
2022/01/07 06:03:28;;;;;;;;;;;;;;;19.92;62.45;101370.56;5049476;28;1538;-31
2022/01/07 06:05:58;;;;;;;;;;;;;;;19.95;62.02;101359.56;5036543;28;1622;-31
2022/01/07 06:08:25;;;;;;;;;;;;;;;19.87;62.52;101360.19;5050781;28;1665;-31
2022/01/07 06:10:54;;;;;;;;;;;;;;;19.83;62.67;101378.38;5047734;28;1790;-31
2022/01/07 06:13:21;;;;;;;;;;;;;;;19.89;63.76;101384.22;5041009;28;1942;-31
2022/01/07 06:15:48;;;;;;;;;;;;;;;19.84;63.27;101379.25;5048973;28;1727;-31
2022/01/07 06:18:17;;;;;;;;;;;;;;;19.90;63.02;101385.94;5042716;28;1914;-31
2022/01/07 06:20:44;;;;;;;;;;;;;;;19.97;62.10;101389.81;5047495;28;1745;-31
2022/01/07 06:23:20;;;;;;;;;;;;;;;19.97;62.34;101389.81;5050867;28;1754;-31
2022/01/07 06:25:59;;;;;;;;;;;;;;;19.99;63.29;101395.91;5038502;28;1753;-31
2022/01/07 06:28:26;;;;;;;;;;;;;;;19.97;63.61;101401.41;5037186;28;2074;-31
2022/01/07 06:33:33;;;;;;;;;;;;;;;19.91;63.65;101401.06;5050217;28;2242;-31
2022/01/07 06:36:00;;;;;;;;;;;;;;;19.88;62.55;101404.00;5053159;28;1465;-31
2022/01/07 06:38:31;;;;;;;;;;;;;;;19.89;62.62;101398.50;5048916;28;1890;-31
2022/01/07 06:41:01;;;;;;;;;;;;;;;19.90;63.21;101410.09;5051494;28;1810;-31
2022/01/07 06:43:29;;;;;;;;;;;;;;;19.89;64.02;101409.22;5050204;28;1467;-31
2022/01/07 06:45:59;;;;;;;;;;;;;;;20.04;63.23;101407.13;5056215;28;1781;-32
2022/01/07 06:48:27;;;;;;;;;;;;;;;19.94;62.85;101416.94;5051646;28;1583;-31
2022/01/07 06:50:56;;;;;;;;;;;;;;;19.99;63.03;101423.59;5046407;28;1615;-31
2022/01/07 06:53:25;;;;;;;;;;;;;;;20.00;62.64;101421.78;5046537;28;2105;-31
2022/01/07 06:56:01;;;;;;;;;;;;;;;20.44;62.72;101431.50;5048937;28;1767;-31
2022/01/07 06:58:29;;;;;;;;;;;;;;;20.34;63.23;101435.09;5038542;28;1913;-31
2022/01/07 07:03:46;;;;;;;;;;;;;;;20.40;64.30;101437.28;5051494;28;2653;-30
2022/01/07 07:06:22;;;;;;;;;;;;;;;20.09;63.04;101447.84;5044037;28;1777;-31
2022/01/07 07:08:49;;;;;;;;;;;;;;;20.13;62.82;101453.84;5041104;28;1413;-30
2022/01/07 07:11:19;;;;;;;;;;;;;;;20.26;62.72;101458.06;5039711;28;2060;-30
2022/01/07 07:13:46;;;;;;;;;;;;;;;20.23;62.66;101452.97;5049835;28;1734;-31
2022/01/07 07:16:15;;;;;;;;;;;;;;;19.97;62.03;101471.19;5041748;28;1834;-30
2022/01/07 07:18:42;;;;;;;;;;;;;;;20.04;62.64;101468.88;5039897;28;1984;-30
2022/01/07 07:21:11;;;;;;;;;;;;;;;20.01;62.35;101461.91;5051669;28;1857;-31
2022/01/07 07:23:39;;;;;;;;;;;;;;;20.03;62.11;101462.66;5042320;28;1762;-31
2022/01/07 07:26:06;;;;;;;;;;;;;;;20.02;62.58;101446.69;5052507;28;1938;-31
2022/01/07 07:28:39;;;;;;;;;;;;;;;20.03;62.63;101437.63;5043719;28;1702;-31
2022/01/07 07:34:18;;;;;;;;;;;;;;;20.09;62.37;101461.28;5045857;28;2169;-31
2022/01/07 07:36:49;;;;;;;;;;;;;;;20.25;61.71;101458.19;5052433;28;1772;-30
2022/01/07 07:39:18;;;;;;;;;;;;;;;20.11;62.88;101459.31;5046054;28;1971;-31
2022/01/07 07:41:45;;;;;;;;;;;;;;;20.04;62.75;101455.47;5045870;28;1461;-31
2022/01/07 07:44:14;;;;;;;;;;;;;;;20.18;62.15;101452.47;5044253;28;1643;-31
2022/01/07 07:46:41;;;;;;;;;;;;;;;20.21;62.57;101468.34;5047372;28;1473;-31
2022/01/07 07:49:09;;;;;;;;;;;;;;;20.17;60.62;101466.03;5048621;28;1526;-31
2022/01/07 07:51:36;;;;;;;;;;;;;;;20.24;61.83;101457.34;5044705;28;1578;-31
2022/01/07 07:54:04;;;;;;;;;;;;;;;20.19;61.34;101458.69;5043221;28;2019;-31
2022/01/07 07:56:30;;;;;;;;;;;;;;;20.13;62.67;101469.94;5040021;28;1905;-31
2022/01/07 07:58:58;;;;;;;;;;;;;;;20.13;61.61;101464.56;5049555;28;1977;-31
2022/01/07 08:01:28;;;;;;;;;;;;;;;20.08;62.85;101472.19;5047627;28;1534;-32
2022/01/07 08:03:58;;;;;;;;;;;;;;;20.13;62.03;101473.47;5044441;28;1957;-31
2022/01/07 08:06:45;;;;;;;;;;;;;;;20.06;62.68;101475.81;5048378;28;1528;-32
2022/01/07 08:09:13;;;;;;;;;;;;;;;20.05;62.80;101467.88;5045955;28;1359;-31
2022/01/07 08:11:53;;;;;;;;;;;;;;;20.12;62.86;101473.63;5046429;28;1440;-31
2022/01/07 08:17:12;;;;;;;;;;;;;;;19.98;62.23;101474.75;5046450;28;2124;-30
2022/01/07 08:19:40;;;;;;;;;;;;;;;19.67;63.61;101469.97;5044080;28;1665;-30
2022/01/07 08:22:08;;;;;;;;;;;;;;;20.55;60.43;101475.41;5047441;28;1369;-33
2022/01/07 08:24:35;;;;;;;;;;;;;;;19.98;62.94;101467.53;5042523;28;1563;-33
2022/01/07 08:27:05;;;;;;;;;;;;;;;20.04;63.52;101485.84;5042841;28;1712;-33
2022/01/07 08:29:36;;;;;;;;;;;;;;;20.23;63.04;101477.13;5049064;28;1739;-33
2022/01/07 08:34:57;;;;;;;;;;;;;;;19.57;63.78;101473.53;5043140;28;1469;-33
2022/01/07 08:37:41;;;;;;;;;;;;;;;19.28;64.48;101484.72;5047180;28;1909;-33
2022/01/07 08:40:08;;;;;;;;;;;;;;;19.22;65.27;101493.25;5041730;28;1965;-33
2022/01/07 08:42:38;;;;;;;;;;;;;;;19.11;66.05;101482.50;5051060;28;1750;-33
2022/01/07 08:45:06;;;;;;;;;;;;;;;18.99;65.38;101474.44;5044341;28;1973;-33
2022/01/07 08:47:34;;;;;;;;;;;;;;;18.92;65.98;101472.34;5043685;28;1833;-33
2022/01/07 08:50:09;;;;;;;;;;;;;;;18.86;66.39;101463.81;5054157;28;1795;-34
2022/01/07 08:52:36;;;;;;;;;;;;;;;18.86;66.11;101468.28;5051367;28;1611;-33
2022/01/07 08:55:02;;;;;;;;;;;;;;;18.87;65.99;101470.88;5046931;28;1647;-33
2022/01/07 08:57:32;;;;;;;;;;;;;;;18.92;65.69;101475.00;5047753;28;1987;-34
2022/01/07 09:00:00;;;;;;;;;;;;;;;18.99;65.74;101486.97;5048086;28;1882;-33
2022/01/07 09:02:30;;;;;;;;;;;;;;;19.10;65.28;101491.50;5046680;28;1793;-33
2022/01/07 09:04:57;;;;;;;;;;;;;;;19.24;64.30;101483.28;5036926;28;1921;-33
2022/01/07 09:07:28;;;;;;;;;;;;;;;19.37;64.91;101491.19;5043103;28;1112;-33
2022/01/07 09:09:55;;;;;;;;;;;;;;;19.55;64.18;101487.06;5049461;28;1914;-34
2022/01/07 09:12:25;;;;;;;;;;;;;;;19.67;64.69;101496.81;5047701;28;1797;-33
2022/01/07 09:14:52;;;;;;;;;;;;;;;19.85;64.74;101489.13;5041845;28;1929;-33
2022/01/07 09:17:21;;;;;;;;;;;;;;;19.95;63.56;101497.31;5047744;28;1802;-32
2022/01/07 09:19:58;;;;;;;;;;;;;;;19.82;64.99;101488.56;5051798;28;1934;-32
2022/01/07 09:22:33;;;;;;;;;;;;;;;19.80;64.25;101488.69;5052877;28;1968;-32
2022/01/07 09:25:00;;;;;;;;;;;;;;;19.80;64.74;101491.34;5036961;28;1631;-32
2022/01/07 09:27:38;;;;;;;;;;;;;;;19.73;63.94;101484.75;5033748;28;1959;-32
2022/01/07 09:30:07;;;;;;;;;;;;;;;19.77;64.87;101493.44;5043761;28;1652;-32
2022/01/07 09:32:37;;;;;;;;;;;;;;;19.62;65.28;101484.75;5043390;28;1782;-32
2022/01/07 09:35:04;;;;;;;;;;;;;;;19.56;64.98;101504.03;5040009;28;1626;-32
2022/01/07 09:37:37;;;;;;;;;;;;;;;19.64;65.27;101501.59;5047328;28;1625;-32
2022/01/07 09:40:04;;;;;;;;;;;;;;;19.54;64.40;101481.84;5045126;28;1859;-32
2022/01/07 09:42:30;;;;;;;;;;;;;;;19.54;65.80;101479.16;5051270;28;1765;-32
2022/01/07 09:44:58;;;;;;;;;;;;;;;19.47;65.85;101493.03;5052030;28;1779;-32
2022/01/07 09:47:32;;;;;;;;;;;;;;;19.36;64.97;101490.34;5053557;28;1396;-32
2022/01/07 09:50:01;;;;;;;;;;;;;;;19.31;65.31;101494.34;5045272;28;1560;-32
2022/01/07 09:52:28;;;;;;;;;;;;;;;19.27;65.53;101477.66;5044744;28;1672;-32
2022/01/07 09:54:59;;;;;;;;;;;;;;;19.33;66.35;101479.00;5044092;28;1661;-32
2022/01/07 09:57:26;;;;;;;;;;;;;;;19.32;66.35;101469.22;5047329;28;1463;-32
2022/01/07 09:59:54;;;;;;;;;;;;;;;19.37;65.95;101478.63;5039269;28;2241;-32
2022/01/07 10:02:23;;;;;;;;;;;;;;;19.43;65.25;101482.66;5044341;28;1898;-32
2022/01/07 10:04:53;;;;;;;;;;;;;;;19.36;65.43;101484.97;5042429;28;1415;-32
2022/01/07 10:07:21;;;;;;;;;;;;;;;19.27;65.43;101473.13;5048306;28;1943;-31
2022/01/07 10:10:03;;;;;;;;;;;;;;;19.23;65.38;101486.91;5044827;28;1819;-32
2022/01/07 10:15:16;;;;;;;;;;;;;;;19.28;65.99;101476.69;5040515;28;1750;-33
2022/01/07 10:17:53;;;;;;;;;;;;;;;19.26;65.25;101492.03;5044065;28;1837;-32
2022/01/07 10:20:28;;;;;;;;;;;;;;;19.15;66.47;101489.34;5052071;28;1608;-33
2022/01/07 10:22:58;;;;;;;;;;;;;;;19.15;66.74;101478.59;5047134;28;1608;-33
2022/01/07 10:25:32;;;;;;;;;;;;;;;19.02;66.71;101474.19;5042797;28;1507;-33
2022/01/07 10:28:05;;;;;;;;;;;;;;;19.02;66.08;101474.19;5042685;28;1411;-33
2022/01/07 10:30:39;;;;;;;;;;;;;;;18.96;67.05;101474.69;5040670;28;1571;-33
2022/01/07 10:33:19;;;;;;;;;;;;;;;18.94;66.31;101479.31;5041493;28;1448;-32
2022/01/07 10:35:47;;;;;;;;;;;;;;;18.87;67.01;101460.16;5039830;28;1424;-33
2022/01/07 10:38:19;;;;;;;;;;;;;;;18.87;66.49;101475.38;5049155;28;1910;-33
2022/01/07 10:40:48;;;;;;;;;;;;;;;18.86;67.08;101479.00;5042016;28;1515;-33
2022/01/07 10:43:19;;;;;;;;;;;;;;;18.82;67.17;101464.13;5047892;28;1596;-33
2022/01/07 10:45:48;;;;;;;;;;;;;;;18.85;67.18;101470.13;5050365;28;1559;-33
2022/01/07 10:48:18;;;;;;;;;;;;;;;18.87;66.33;101468.19;5045254;28;1618;-32
2022/01/07 10:50:46;;;;;;;;;;;;;;;18.91;66.78;101474.16;5037164;28;1641;-33
2022/01/07 10:53:32;;;;;;;;;;;;;;;18.96;65.94;101460.41;5051325;28;1757;-33
2022/01/07 10:56:06;;;;;;;;;;;;;;;19.00;65.75;101460.06;5040505;28;1747;-32
2022/01/07 10:58:49;;;;;;;;;;;;;;;19.02;66.30;101450.09;5047456;28;1914;-33
2022/01/07 11:01:26;;;;;;;;;;;;;;;19.03;65.68;101451.78;5051823;28;1943;-33
2022/01/07 11:03:53;;;;;;;;;;;;;;;19.03;65.73;101462.50;5044390;28;1015;-32
2022/01/07 11:06:20;;;;;;;;;;;;;;;19.03;65.16;101454.44;5042185;28;1587;-33
2022/01/07 11:08:51;;;;;;;;;;;;;;;19.03;65.24;101454.44;5039830;28;1447;-32
2022/01/07 11:11:22;;;;;;;;;;;;;;;19.04;65.65;101460.69;5039511;28;2015;-32
2022/01/07 11:13:52;;;;;;;;;;;;;;;19.05;64.93;101455.19;5051661;28;1769;-33
2022/01/07 11:16:21;;;;;;;;;;;;;;;19.04;65.95;101466.06;5045315;28;1714;-32
2022/01/07 11:18:49;;;;;;;;;;;;;;;19.01;64.86;101464.44;5051208;28;1975;-32
2022/01/07 11:21:17;;;;;;;;;;;;;;;19.01;65.46;101463.59;5048946;28;1904;-32
2022/01/07 11:23:47;;;;;;;;;;;;;;;19.04;65.12;101469.56;5049613;28;1899;-32
2022/01/07 11:26:15;;;;;;;;;;;;;;;19.03;65.39;101465.19;5043194;28;1825;-32
2022/01/07 11:28:58;;;;;;;;;;;;;;;19.02;64.61;101458.13;5043785;28;1474;-33
2022/01/07 11:31:31;;;;;;;;;;;;;;;19.03;64.71;101458.97;5044929;28;2849;-32
2022/01/07 11:34:18;;;;;;;;;;;;;;;19.06;64.54;101469.47;5057736;28;1773;-32
2022/01/07 11:36:45;;;;;;;;;;;;;;;19.05;64.97;101457.88;5054355;28;1765;-32
2022/01/07 11:39:12;;;;;;;;;;;;;;;19.04;64.69;101469.56;5045537;28;1910;-32
2022/01/07 11:41:58;;;;;;;;;;;;;;;19.02;65.13;101471.53;5041071;28;2012;-32
2022/01/07 11:44:35;;;;;;;;;;;;;;;19.00;65.66;101470.78;5037037;28;1604;-32
2022/01/07 11:47:25;;;;;;;;;;;;;;;18.99;64.81;101455.66;5050278;28;1741;-33
2022/01/07 11:50:03;;;;;;;;;;;;;;;18.99;65.35;101473.56;5054970;28;1797;-33
2022/01/07 11:52:41;;;;;;;;;;;;;;;18.94;65.71;101457.88;5048789;28;2047;-33
2022/01/07 11:55:44;;;;;;;;;;;;;;;18.96;65.57;101463.97;5046469;28;1646;-33
2022/01/07 11:58:15;;;;;;;;;;;;;;;18.92;65.32;101461.59;5041846;28;2086;-32
2022/01/07 12:00:50;;;;;;;;;;;;;;;18.90;65.14;101459.06;5045133;28;1965;-33
2022/01/07 12:03:31;;;;;;;;;;;;;;;18.86;65.60;101461.13;5043914;28;1538;-33
2022/01/07 12:06:00;;;;;;;;;;;;;;;18.84;65.35;101451.47;5051456;28;1826;-32
2022/01/07 12:08:42;;;;;;;;;;;;;;;18.81;65.42;101454.41;5049957;28;1697;-33
2022/01/07 12:11:10;;;;;;;;;;;;;;;18.83;65.33;101455.16;5049392;28;1815;-33
2022/01/07 12:13:37;;;;;;;;;;;;;;;18.91;66.14;101468.81;5050072;28;2053;-32
2022/01/07 12:16:06;;;;;;;;;;;;;;;18.92;65.74;101457.13;5053687;28;1864;-33
2022/01/07 12:18:39;;;;;;;;;;;;;;;19.02;65.89;101474.19;5046592;28;1902;-32
2022/01/07 12:21:05;;;;;;;;;;;;;;;19.05;66.45;101463.22;5048974;28;1718;-33
2022/01/07 12:23:32;;;;;;;;;;;;;;;19.10;66.08;101465.56;5038724;28;1586;-33
2022/01/07 12:26:03;;;;;;;;;;;;;;;19.08;65.19;101457.66;5043361;28;1801;-32
2022/01/07 12:28:35;;;;;;;;;;;;;;;19.24;64.63;101461.81;5049187;28;1560;-33
2022/01/07 12:31:06;;;;;;;;;;;;;;;19.28;64.35;101463.28;5050748;28;1950;-33
2022/01/07 12:34:00;;;;;;;;;;;;;;;19.40;64.47;101462.31;5054817;28;1265;-33
2022/01/07 12:36:47;;;;;;;;;;;;;;;19.44;64.74;101452.19;5049343;28;1686;-33
2022/01/07 12:39:16;;;;;;;;;;;;;;;19.33;65.25;101469.13;5037605;28;1985;-33
2022/01/07 12:41:52;;;;;;;;;;;;;;;19.26;65.53;101470.59;5045012;28;1916;-33
2022/01/07 12:44:20;;;;;;;;;;;;;;;19.21;65.48;101467.41;5046185;28;1733;-33
2022/01/07 12:46:57;;;;;;;;;;;;;;;19.20;64.93;101466.56;5046504;28;1459;-33
2022/01/07 12:49:38;;;;;;;;;;;;;;;19.20;65.77;101454.97;5040031;28;1489;-32
2022/01/07 12:52:06;;;;;;;;;;;;;;;19.20;65.57;101463.88;5040214;28;1968;-33
2022/01/07 12:54:44;;;;;;;;;;;;;;;19.19;65.63;101458.63;5050612;28;1953;-33
2022/01/07 12:57:10;;;;;;;;;;;;;;;19.22;64.94;101453.03;5044417;28;1531;-32
2022/01/07 12:59:37;;;;;;;;;;;;;;;19.21;64.90;101462.03;5044756;28;1979;-32
2022/01/07 13:02:05;;;;;;;;;;;;;;;19.20;65.59;101463.88;5047862;28;1754;-32
2022/01/07 13:04:38;;;;;;;;;;;;;;;19.24;64.88;101467.19;5048890;28;1065;-32
2022/01/07 13:07:07;;;;;;;;;;;;;;;19.24;64.51;101468.03;5050893;28;2020;-33
2022/01/07 13:09:36;;;;;;;;;;;;;;;19.25;63.71;101459.00;5051988;28;1746;-33
2022/01/07 13:12:16;;;;;;;;;;;;;;;19.18;64.64;101465.81;5052205;28;2042;-33
2022/01/07 13:14:50;;;;;;;;;;;;;;;19.17;64.58;101471.31;5042815;28;1595;-33
2022/01/07 13:17:23;;;;;;;;;;;;;;;19.18;63.87;101463.16;5043195;28;1559;-33
2022/01/07 13:19:57;;;;;;;;;;;;;;;19.07;65.02;101458.59;5040470;28;1975;-33
2022/01/07 13:22:34;;;;;;;;;;;;;;;19.01;64.64;101475.16;5043457;28;1948;-33
2022/01/07 13:25:02;;;;;;;;;;;;;;;19.01;64.46;101475.16;5045276;28;1838;-33
2022/01/07 13:27:30;;;;;;;;;;;;;;;18.96;64.95;101476.47;5041977;28;1578;-33